AFR07MR LFML-EBBR
Flight info
| Callsign | AFR07MR |
|---|---|
| Flight time | 1h 19m |
| Altitude | 30000 |
| Route | ETREK DCT LUXAN DCT LTP DCT SOPLO DCT OMASI DCT KINNI/N0443F280 DCT GILIR/N0451F340 DCT PENDU DCT IXILU DCT GIVOR/N0452F320 DCT SORAL DCT IBERA N853 DIK Y37 BATTY |
| Aircraft | A320/M-SDE3FGHIRWY/LB1 |
Departure
| Time | 2026-05-08 08:03 |
|---|---|
| Airport | Marseille Provence Airport (LFML) |
Arrival
| Time | 2026-05-08 09:23 |
|---|---|
| Airport | Brussels Airport (EBBR) |
| Time | Latitude | Longitude | Altitude | Speed | Heading |
|---|---|---|---|---|---|
| 2026-05-08 07:39 | 43.44057 | 5.22102 | 41 ft | 0 kts | 39° |
| 2026-05-08 07:50 | 43.44042 | 5.22086 | 38 ft | 4 kts | 39° |
| 2026-05-08 07:50 | 43.44022 | 5.22062 | 40 ft | 4 kts | 52° |
| 2026-05-08 07:51 | 43.44009 | 5.22031 | 40 ft | 4 kts | 82° |
| 2026-05-08 07:51 | 43.44013 | 5.22004 | 41 ft | 1 kts | 133° |
| 2026-05-08 07:51 | 43.44013 | 5.22003 | 41 ft | 1 kts | 133° |
| 2026-05-08 07:58 | 43.44013 | 5.22004 | 41 ft | 0 kts | 133° |
| 2026-05-08 08:00 | 43.44014 | 5.22003 | 41 ft | 0 kts | 133° |
| 2026-05-08 08:00 | 43.43990 | 5.22037 | 41 ft | 1 kts | 133° |
| 2026-05-08 08:00 | 43.43970 | 5.22066 | 42 ft | 14 kts | 134° |
| 2026-05-08 08:00 | 43.43883 | 5.22150 | 45 ft | 11 kts | 190° |
| 2026-05-08 08:01 | 43.43825 | 5.22085 | 45 ft | 13 kts | 224° |
| 2026-05-08 08:01 | 43.43725 | 5.22041 | 43 ft | 19 kts | 156° |
| 2026-05-08 08:01 | 43.43601 | 5.22141 | 49 ft | 22 kts | 150° |
| 2026-05-08 08:01 | 43.43472 | 5.22242 | 52 ft | 21 kts | 151° |
| 2026-05-08 08:02 | 43.43357 | 5.22255 | 52 ft | 13 kts | 218° |
| 2026-05-08 08:02 | 43.43332 | 5.22101 | 55 ft | 23 kts | 270° |
| 2026-05-08 08:02 | 43.43396 | 5.21893 | 51 ft | 24 kts | 314° |
| 2026-05-08 08:02 | 43.43577 | 5.21636 | 46 ft | 71 kts | 314° |
| 2026-05-08 08:03 | 43.44101 | 5.20893 | 30 ft | 139 kts | 314° |
| 2026-05-08 08:03 | 43.44879 | 5.19792 | 246 ft | 168 kts | 315° |
| 2026-05-08 08:03 | 43.45726 | 5.18639 | 890 ft | 176 kts | 314° |
| 2026-05-08 08:03 | 43.46614 | 5.17404 | 1511 ft | 188 kts | 314° |
| 2026-05-08 08:04 | 43.47556 | 5.16036 | 2034 ft | 207 kts | 312° |
| 2026-05-08 08:04 | 43.48562 | 5.14515 | 2630 ft | 222 kts | 313° |
| 2026-05-08 08:04 | 43.49661 | 5.12939 | 3331 ft | 234 kts | 313° |
| 2026-05-08 08:04 | 43.50836 | 5.11252 | 3927 ft | 255 kts | 313° |
| 2026-05-08 08:05 | 43.52093 | 5.09461 | 4733 ft | 264 kts | 314° |
| 2026-05-08 08:05 | 43.53382 | 5.07626 | 5663 ft | 268 kts | 314° |
| 2026-05-08 08:05 | 43.54688 | 5.05767 | 6593 ft | 272 kts | 314° |
| 2026-05-08 08:05 | 43.56015 | 5.03874 | 7504 ft | 276 kts | 314° |
| 2026-05-08 08:06 | 43.57357 | 5.01958 | 8405 ft | 280 kts | 314° |
| 2026-05-08 08:06 | 43.58721 | 5.00019 | 9279 ft | 284 kts | 314° |
| 2026-05-08 08:06 | 43.60108 | 4.98057 | 10129 ft | 288 kts | 314° |
| 2026-05-08 08:06 | 43.61536 | 4.96035 | 10535 ft | 309 kts | 314° |
| 2026-05-08 08:07 | 43.63096 | 4.93823 | 10799 ft | 333 kts | 314° |
| 2026-05-08 08:07 | 43.64763 | 4.91461 | 11175 ft | 350 kts | 314° |
| 2026-05-08 08:07 | 43.66538 | 4.89100 | 11853 ft | 357 kts | 320° |
| 2026-05-08 08:07 | 43.68616 | 4.87186 | 12573 ft | 362 kts | 332° |
| 2026-05-08 08:08 | 43.70952 | 4.85868 | 13288 ft | 366 kts | 343° |
| 2026-05-08 08:08 | 43.73415 | 4.84911 | 14005 ft | 370 kts | 344° |
| 2026-05-08 08:08 | 43.75904 | 4.83946 | 14672 ft | 374 kts | 344° |
| 2026-05-08 08:08 | 43.78420 | 4.82967 | 15344 ft | 377 kts | 344° |
| 2026-05-08 08:09 | 43.80958 | 4.81972 | 16011 ft | 380 kts | 344° |
| 2026-05-08 08:09 | 43.83513 | 4.80965 | 16652 ft | 384 kts | 343° |
| 2026-05-08 08:09 | 43.86091 | 4.79945 | 17270 ft | 387 kts | 343° |
| 2026-05-08 08:09 | 43.88694 | 4.78916 | 17878 ft | 391 kts | 343° |
| 2026-05-08 08:10 | 43.91329 | 4.77877 | 18477 ft | 395 kts | 344° |
| 2026-05-08 08:10 | 43.93986 | 4.76831 | 19060 ft | 398 kts | 344° |
| 2026-05-08 08:10 | 43.96663 | 4.75779 | 19648 ft | 402 kts | 344° |
| 2026-05-08 08:10 | 43.99364 | 4.74715 | 20209 ft | 405 kts | 344° |
| 2026-05-08 08:11 | 44.02103 | 4.73723 | 20749 ft | 408 kts | 346° |
| 2026-05-08 08:11 | 44.04883 | 4.72832 | 21269 ft | 412 kts | 347° |
| 2026-05-08 08:11 | 44.07656 | 4.72012 | 21764 ft | 415 kts | 348° |
| 2026-05-08 08:11 | 44.10535 | 4.71188 | 22261 ft | 418 kts | 348° |
| 2026-05-08 08:12 | 44.13388 | 4.70365 | 22725 ft | 420 kts | 348° |
| 2026-05-08 08:12 | 44.16260 | 4.69514 | 23167 ft | 424 kts | 347° |
| 2026-05-08 08:12 | 44.19108 | 4.68647 | 23586 ft | 426 kts | 347° |
| 2026-05-08 08:12 | 44.22015 | 4.67746 | 24012 ft | 429 kts | 347° |
| 2026-05-08 08:13 | 44.24939 | 4.66832 | 24420 ft | 431 kts | 347° |
| 2026-05-08 08:13 | 44.27877 | 4.65913 | 24813 ft | 434 kts | 347° |
| 2026-05-08 08:13 | 44.30833 | 4.64992 | 25188 ft | 436 kts | 347° |
| 2026-05-08 08:13 | 44.33813 | 4.64071 | 25557 ft | 439 kts | 347° |
| 2026-05-08 08:14 | 44.36808 | 4.63147 | 25911 ft | 442 kts | 347° |
| 2026-05-08 08:14 | 44.39825 | 4.62212 | 26248 ft | 444 kts | 347° |
| 2026-05-08 08:14 | 44.42817 | 4.61284 | 26568 ft | 447 kts | 347° |
| 2026-05-08 08:14 | 44.45865 | 4.60336 | 26888 ft | 449 kts | 347° |
| 2026-05-08 08:15 | 44.48923 | 4.59382 | 27201 ft | 452 kts | 347° |
| 2026-05-08 08:15 | 44.51998 | 4.58423 | 27511 ft | 453 kts | 347° |
| 2026-05-08 08:15 | 44.55083 | 4.57457 | 27810 ft | 455 kts | 347° |
| 2026-05-08 08:15 | 44.58193 | 4.56479 | 28087 ft | 458 kts | 347° |
| 2026-05-08 08:16 | 44.61312 | 4.55499 | 28360 ft | 460 kts | 347° |
| 2026-05-08 08:16 | 44.64450 | 4.54573 | 28590 ft | 463 kts | 351° |
| 2026-05-08 08:16 | 44.67627 | 4.54197 | 28805 ft | 466 kts | 359° |
| 2026-05-08 08:16 | 44.70867 | 4.54506 | 29025 ft | 468 kts | 8° |
| 2026-05-08 08:17 | 44.74093 | 4.55148 | 29280 ft | 468 kts | 8° |
| 2026-05-08 08:17 | 44.77321 | 4.55778 | 29528 ft | 469 kts | 7° |
| 2026-05-08 08:17 | 44.80553 | 4.56401 | 29809 ft | 468 kts | 7° |
| 2026-05-08 08:17 | 44.83785 | 4.57020 | 29980 ft | 467 kts | 7° |
| 2026-05-08 08:18 | 44.86988 | 4.57638 | 30009 ft | 462 kts | 7° |
| 2026-05-08 08:18 | 44.93355 | 4.58883 | 30017 ft | 461 kts | 7° |
| 2026-05-08 08:19 | 44.99719 | 4.60137 | 30006 ft | 460 kts | 7° |
| 2026-05-08 08:19 | 45.06060 | 4.61381 | 30006 ft | 461 kts | 7° |
| 2026-05-08 08:20 | 45.12368 | 4.62619 | 30004 ft | 461 kts | 7° |
| 2026-05-08 08:20 | 45.18719 | 4.63868 | 30002 ft | 460 kts | 7° |
| 2026-05-08 08:21 | 45.25077 | 4.65136 | 29982 ft | 462 kts | 8° |
| 2026-05-08 08:21 | 45.31455 | 4.66414 | 29979 ft | 463 kts | 8° |
| 2026-05-08 08:22 | 45.37847 | 4.67697 | 29982 ft | 464 kts | 8° |
| 2026-05-08 08:22 | 45.44247 | 4.68984 | 29986 ft | 465 kts | 8° |
| 2026-05-08 08:23 | 45.50667 | 4.70277 | 29987 ft | 466 kts | 8° |
| 2026-05-08 08:23 | 45.57097 | 4.71573 | 29995 ft | 466 kts | 8° |
| 2026-05-08 08:24 | 45.63518 | 4.72870 | 30001 ft | 466 kts | 8° |
| 2026-05-08 08:24 | 45.69934 | 4.74169 | 30003 ft | 466 kts | 8° |
| 2026-05-08 08:25 | 45.76353 | 4.75470 | 30003 ft | 466 kts | 8° |
| 2026-05-08 08:25 | 45.82733 | 4.76765 | 30002 ft | 465 kts | 8° |
| 2026-05-08 08:26 | 45.89149 | 4.78069 | 30001 ft | 465 kts | 8° |
| 2026-05-08 08:26 | 45.95558 | 4.79374 | 30001 ft | 465 kts | 8° |
| 2026-05-08 08:27 | 46.01962 | 4.80680 | 29999 ft | 465 kts | 8° |
| 2026-05-08 08:27 | 46.08365 | 4.81989 | 29996 ft | 464 kts | 8° |
| 2026-05-08 08:28 | 46.14760 | 4.83297 | 29994 ft | 464 kts | 8° |
| 2026-05-08 08:28 | 46.21160 | 4.84609 | 29993 ft | 464 kts | 8° |
| 2026-05-08 08:29 | 46.27552 | 4.85921 | 29993 ft | 464 kts | 8° |
| 2026-05-08 08:29 | 46.33951 | 4.87237 | 29994 ft | 464 kts | 8° |
| 2026-05-08 08:30 | 46.40350 | 4.88555 | 29994 ft | 464 kts | 8° |
| 2026-05-08 08:30 | 46.49945 | 4.90536 | 29995 ft | 464 kts | 8° |
| 2026-05-08 08:31 | 46.56350 | 4.91860 | 29995 ft | 465 kts | 8° |
| 2026-05-08 08:31 | 46.62758 | 4.93188 | 29996 ft | 465 kts | 8° |
| 2026-05-08 08:32 | 46.69161 | 4.94516 | 29997 ft | 465 kts | 8° |
| 2026-05-08 08:32 | 46.75571 | 4.95849 | 29998 ft | 465 kts | 8° |
| 2026-05-08 08:33 | 46.81935 | 4.97173 | 29998 ft | 465 kts | 8° |
| 2026-05-08 08:33 | 46.88336 | 4.98508 | 30000 ft | 465 kts | 8° |
| 2026-05-08 08:34 | 46.94745 | 4.99847 | 30000 ft | 465 kts | 8° |
| 2026-05-08 08:34 | 47.00899 | 5.02494 | 30030 ft | 463 kts | 31° |
| 2026-05-08 08:35 | 47.03455 | 5.05356 | 30031 ft | 462 kts | 43° |
| 2026-05-08 08:35 | 47.05803 | 5.08564 | 30031 ft | 461 kts | 43° |
| 2026-05-08 08:35 | 47.10477 | 5.15008 | 30031 ft | 460 kts | 43° |
| 2026-05-08 08:36 | 47.15135 | 5.21445 | 30022 ft | 460 kts | 43° |
| 2026-05-08 08:36 | 47.19757 | 5.27844 | 30028 ft | 459 kts | 43° |
| 2026-05-08 08:37 | 47.24433 | 5.34325 | 30020 ft | 459 kts | 43° |
| 2026-05-08 08:37 | 47.29048 | 5.40733 | 30013 ft | 459 kts | 43° |
| 2026-05-08 08:38 | 47.33690 | 5.47205 | 30012 ft | 459 kts | 43° |
| 2026-05-08 08:38 | 47.38327 | 5.53689 | 30020 ft | 459 kts | 43° |
| 2026-05-08 08:39 | 47.42960 | 5.60170 | 30001 ft | 459 kts | 43° |
| 2026-05-08 08:39 | 47.47592 | 5.66664 | 30006 ft | 459 kts | 43° |
| 2026-05-08 08:40 | 47.52219 | 5.73171 | 30001 ft | 459 kts | 43° |
| 2026-05-08 08:40 | 47.56838 | 5.79707 | 30007 ft | 459 kts | 44° |
| 2026-05-08 08:41 | 47.61421 | 5.86203 | 30002 ft | 459 kts | 43° |
| 2026-05-08 08:41 | 47.66038 | 5.92754 | 30001 ft | 459 kts | 44° |
| 2026-05-08 08:42 | 47.70659 | 5.99302 | 30001 ft | 459 kts | 41° |
| 2026-05-08 08:42 | 47.75994 | 6.04442 | 30009 ft | 458 kts | 23° |
| 2026-05-08 08:43 | 47.82091 | 6.07166 | 30001 ft | 458 kts | 14° |
| 2026-05-08 08:43 | 47.88269 | 6.09476 | 30001 ft | 458 kts | 14° |
| 2026-05-08 08:44 | 47.94453 | 6.11801 | 30007 ft | 458 kts | 14° |
| 2026-05-08 08:44 | 48.00597 | 6.14125 | 30002 ft | 458 kts | 14° |
| 2026-05-08 08:45 | 48.06794 | 6.16478 | 29998 ft | 459 kts | 14° |
| 2026-05-08 08:45 | 48.12981 | 6.18831 | 30001 ft | 459 kts | 14° |
| 2026-05-08 08:46 | 48.19178 | 6.21189 | 30008 ft | 459 kts | 14° |
| 2026-05-08 08:46 | 48.24326 | 6.23150 | 30012 ft | 459 kts | 14° |
| 2026-05-08 08:47 | 48.31534 | 6.25897 | 30014 ft | 459 kts | 14° |
| 2026-05-08 08:47 | 48.36714 | 6.27888 | 30003 ft | 459 kts | 14° |
| 2026-05-08 08:48 | 48.42899 | 6.30286 | 30014 ft | 459 kts | 14° |
| 2026-05-08 08:48 | 48.49090 | 6.32673 | 30006 ft | 458 kts | 14° |
| 2026-05-08 08:49 | 48.55235 | 6.35021 | 30003 ft | 458 kts | 14° |
| 2026-05-08 08:49 | 48.61416 | 6.37410 | 30004 ft | 458 kts | 14° |
| 2026-05-08 08:50 | 48.67650 | 6.39323 | 30002 ft | 457 kts | 4° |
| 2026-05-08 08:50 | 48.74008 | 6.39952 | 30001 ft | 457 kts | 4° |
| 2026-05-08 08:51 | 48.80361 | 6.40600 | 30001 ft | 457 kts | 4° |
| 2026-05-08 08:51 | 48.86713 | 6.41248 | 30000 ft | 457 kts | 4° |
| 2026-05-08 08:52 | 48.93060 | 6.41899 | 29999 ft | 457 kts | 4° |
| 2026-05-08 08:52 | 48.99409 | 6.42540 | 30001 ft | 457 kts | 4° |
| 2026-05-08 08:53 | 49.05722 | 6.43176 | 30000 ft | 457 kts | 4° |
| 2026-05-08 08:53 | 49.12074 | 6.43212 | 29998 ft | 457 kts | 352° |
| 2026-05-08 08:54 | 49.18253 | 6.40977 | 29999 ft | 456 kts | 345° |
| 2026-05-08 08:54 | 49.24384 | 6.38450 | 29997 ft | 456 kts | 345° |
| 2026-05-08 08:55 | 49.30519 | 6.35916 | 29997 ft | 456 kts | 345° |
| 2026-05-08 08:55 | 49.36653 | 6.33387 | 29997 ft | 456 kts | 345° |
| 2026-05-08 08:56 | 49.42791 | 6.30850 | 29999 ft | 456 kts | 345° |
| 2026-05-08 08:56 | 49.48876 | 6.28311 | 30000 ft | 456 kts | 345° |
| 2026-05-08 08:57 | 49.55007 | 6.25769 | 29998 ft | 456 kts | 345° |
| 2026-05-08 08:57 | 49.61147 | 6.23270 | 29998 ft | 456 kts | 345° |
| 2026-05-08 08:58 | 49.67290 | 6.20758 | 29995 ft | 457 kts | 345° |
| 2026-05-08 08:58 | 49.73438 | 6.18218 | 29997 ft | 457 kts | 345° |
| 2026-05-08 08:59 | 49.79584 | 6.15689 | 29999 ft | 457 kts | 345° |
| 2026-05-08 08:59 | 49.85740 | 6.13157 | 30001 ft | 457 kts | 345° |
| 2026-05-08 09:00 | 49.91921 | 6.10800 | 30001 ft | 457 kts | 347° |
| 2026-05-08 09:00 | 49.98139 | 6.08682 | 29997 ft | 457 kts | 347° |
| 2026-05-08 09:01 | 50.04368 | 6.06581 | 29996 ft | 458 kts | 347° |
| 2026-05-08 09:01 | 50.10578 | 6.04403 | 29996 ft | 458 kts | 347° |
| 2026-05-08 09:02 | 50.16751 | 6.02182 | 29995 ft | 458 kts | 347° |
| 2026-05-08 09:02 | 50.22963 | 5.99962 | 29995 ft | 458 kts | 347° |
| 2026-05-08 09:03 | 50.26081 | 5.98855 | 29800 ft | 459 kts | 347° |
| 2026-05-08 09:03 | 50.29193 | 5.97750 | 29550 ft | 459 kts | 347° |
| 2026-05-08 09:03 | 50.32315 | 5.96635 | 29299 ft | 459 kts | 347° |
| 2026-05-08 09:03 | 50.35436 | 5.95518 | 29050 ft | 460 kts | 347° |
| 2026-05-08 09:04 | 50.38550 | 5.94405 | 28660 ft | 457 kts | 347° |
| 2026-05-08 09:04 | 50.41609 | 5.93309 | 27668 ft | 457 kts | 347° |
| 2026-05-08 09:04 | 50.44721 | 5.92189 | 26524 ft | 460 kts | 347° |
| 2026-05-08 09:04 | 50.47841 | 5.91061 | 25579 ft | 458 kts | 347° |
| 2026-05-08 09:05 | 50.50931 | 5.89944 | 24806 ft | 452 kts | 347° |
| 2026-05-08 09:05 | 50.53979 | 5.88840 | 24046 ft | 446 kts | 347° |
| 2026-05-08 09:05 | 50.56986 | 5.87745 | 23296 ft | 441 kts | 346° |
| 2026-05-08 09:05 | 50.59872 | 5.86204 | 22585 ft | 436 kts | 336° |
| 2026-05-08 09:06 | 50.62519 | 5.83941 | 21893 ft | 431 kts | 326° |
| 2026-05-08 09:06 | 50.64865 | 5.81052 | 21202 ft | 426 kts | 317° |
| 2026-05-08 09:06 | 50.66863 | 5.77636 | 20525 ft | 422 kts | 308° |
| 2026-05-08 09:06 | 50.68480 | 5.73807 | 19862 ft | 417 kts | 298° |
| 2026-05-08 09:07 | 50.69808 | 5.69753 | 19213 ft | 413 kts | 297° |
| 2026-05-08 09:07 | 50.71086 | 5.65780 | 18590 ft | 409 kts | 296° |
| 2026-05-08 09:07 | 50.72362 | 5.61786 | 17965 ft | 406 kts | 296° |
| 2026-05-08 09:07 | 50.73622 | 5.57829 | 17359 ft | 402 kts | 296° |
| 2026-05-08 09:08 | 50.74873 | 5.53893 | 16767 ft | 399 kts | 296° |
| 2026-05-08 09:08 | 50.76111 | 5.49998 | 16178 ft | 395 kts | 296° |
| 2026-05-08 09:08 | 50.77338 | 5.46135 | 15601 ft | 392 kts | 296° |
| 2026-05-08 09:08 | 50.78555 | 5.42308 | 15015 ft | 388 kts | 296° |
| 2026-05-08 09:09 | 50.79763 | 5.38514 | 14427 ft | 385 kts | 296° |
| 2026-05-08 09:09 | 50.80961 | 5.34750 | 13816 ft | 382 kts | 296° |
| 2026-05-08 09:09 | 50.82146 | 5.31021 | 13232 ft | 378 kts | 296° |
| 2026-05-08 09:09 | 50.83320 | 5.27314 | 12619 ft | 375 kts | 296° |
| 2026-05-08 09:10 | 50.84476 | 5.23638 | 11996 ft | 371 kts | 296° |
| 2026-05-08 09:10 | 50.85617 | 5.19997 | 11354 ft | 368 kts | 296° |
| 2026-05-08 09:10 | 50.86723 | 5.16369 | 10721 ft | 364 kts | 292° |
| 2026-05-08 09:10 | 50.87511 | 5.12582 | 10085 ft | 360 kts | 283° |
| 2026-05-08 09:11 | 50.87876 | 5.08714 | 9801 ft | 347 kts | 274° |
| 2026-05-08 09:11 | 50.88034 | 5.04992 | 9663 ft | 330 kts | 274° |
| 2026-05-08 09:11 | 50.88194 | 5.01451 | 9540 ft | 315 kts | 274° |
| 2026-05-08 09:11 | 50.88348 | 4.98117 | 9364 ft | 292 kts | 274° |
| 2026-05-08 09:12 | 50.88492 | 4.94966 | 8906 ft | 285 kts | 274° |
| 2026-05-08 09:12 | 50.88632 | 4.91862 | 8577 ft | 281 kts | 274° |
| 2026-05-08 09:12 | 50.88768 | 4.88783 | 8198 ft | 279 kts | 274° |
| 2026-05-08 09:12 | 50.88904 | 4.85726 | 7810 ft | 277 kts | 274° |
| 2026-05-08 09:13 | 50.89037 | 4.82692 | 7415 ft | 276 kts | 274° |
| 2026-05-08 09:13 | 50.89166 | 4.79680 | 7132 ft | 272 kts | 274° |
| 2026-05-08 09:13 | 50.89294 | 4.76662 | 7005 ft | 274 kts | 274° |
| 2026-05-08 09:13 | 50.89421 | 4.73687 | 6882 ft | 274 kts | 274° |
| 2026-05-08 09:14 | 50.89549 | 4.70637 | 6756 ft | 274 kts | 274° |
| 2026-05-08 09:14 | 50.89673 | 4.67631 | 6627 ft | 273 kts | 274° |
| 2026-05-08 09:14 | 50.89793 | 4.64629 | 6503 ft | 273 kts | 274° |
| 2026-05-08 09:14 | 50.89912 | 4.61662 | 6379 ft | 272 kts | 274° |
| 2026-05-08 09:15 | 50.90031 | 4.58664 | 6254 ft | 272 kts | 274° |
| 2026-05-08 09:15 | 50.90153 | 4.55679 | 6126 ft | 271 kts | 274° |
| 2026-05-08 09:15 | 50.90269 | 4.52696 | 6001 ft | 271 kts | 272° |
| 2026-05-08 09:15 | 50.90338 | 4.49713 | 5879 ft | 270 kts | 271° |
| 2026-05-08 09:16 | 50.90379 | 4.46739 | 5751 ft | 270 kts | 271° |
| 2026-05-08 09:16 | 50.90412 | 4.43771 | 5625 ft | 270 kts | 271° |
| 2026-05-08 09:16 | 50.90444 | 4.40803 | 5499 ft | 269 kts | 271° |
| 2026-05-08 09:16 | 50.90476 | 4.37846 | 5371 ft | 268 kts | 271° |
| 2026-05-08 09:17 | 50.90509 | 4.34890 | 5247 ft | 268 kts | 271° |
| 2026-05-08 09:17 | 50.90544 | 4.31938 | 5121 ft | 267 kts | 271° |
| 2026-05-08 09:17 | 50.90583 | 4.28991 | 4922 ft | 268 kts | 271° |
| 2026-05-08 09:17 | 50.90624 | 4.26018 | 4411 ft | 270 kts | 271° |
| 2026-05-08 09:18 | 50.90465 | 4.23143 | 4270 ft | 256 kts | 250° |
| 2026-05-08 09:18 | 50.89486 | 4.20933 | 4149 ft | 243 kts | 217° |
| 2026-05-08 09:18 | 50.87968 | 4.20000 | 3986 ft | 233 kts | 184° |
| 2026-05-08 09:18 | 50.86373 | 4.20515 | 3407 ft | 243 kts | 150° |
| 2026-05-08 09:19 | 50.85223 | 4.22443 | 3031 ft | 243 kts | 115° |
| 2026-05-08 09:19 | 50.84917 | 4.25003 | 2706 ft | 238 kts | 83° |
| 2026-05-08 09:19 | 50.85498 | 4.27332 | 2270 ft | 227 kts | 50° |
| 2026-05-08 09:19 | 50.86575 | 4.29017 | 2079 ft | 208 kts | 45° |
| 2026-05-08 09:20 | 50.87478 | 4.30699 | 2024 ft | 192 kts | 56° |
| 2026-05-08 09:20 | 50.87942 | 4.32572 | 1887 ft | 177 kts | 78° |
| 2026-05-08 09:20 | 50.88103 | 4.34408 | 1599 ft | 161 kts | 81° |
| 2026-05-08 09:20 | 50.88275 | 4.36094 | 1357 ft | 149 kts | 80° |
| 2026-05-08 09:21 | 50.88446 | 4.37664 | 1150 ft | 141 kts | 79° |
| 2026-05-08 09:21 | 50.88613 | 4.39181 | 961 ft | 139 kts | 79° |
| 2026-05-08 09:22 | 50.90405 | 4.47338 | 123 ft | 98 kts | 66° |
| 2026-05-08 09:23 | 50.90630 | 4.48118 | 120 ft | 50 kts | 65° |
| 2026-05-08 09:23 | 50.90620 | 4.48394 | 121 ft | 17 kts | 118° |
| 2026-05-08 09:23 | 50.90612 | 4.48418 | 121 ft | 0 kts | 118° |
| 2026-05-08 09:24 | 50.90595 | 4.48465 | 121 ft | 12 kts | 120° |
| 2026-05-08 09:24 | 50.90545 | 4.48579 | 119 ft | 12 kts | 153° |
| 2026-05-08 09:24 | 50.90483 | 4.48515 | 121 ft | 15 kts | 244° |
| 2026-05-08 09:24 | 50.90427 | 4.48319 | 120 ft | 24 kts | 245° |
| 2026-05-08 09:25 | 50.90349 | 4.48050 | 118 ft | 29 kts | 246° |
| 2026-05-08 09:25 | 50.90273 | 4.47841 | 121 ft | 9 kts | 179° |
| 2026-05-08 09:25 | 50.90214 | 4.47882 | 121 ft | 1 kts | 154° |